createdAt,value
2019-03-10T00:01:41.033Z,7.31
2019-03-10T00:04:11.424Z,7.34
2019-03-10T00:06:41.997Z,7.32
2019-03-10T00:09:12.407Z,7.31
2019-03-10T00:11:42.860Z,7.31
2019-03-10T00:14:14.221Z,7.28
2019-03-10T00:16:44.665Z,7.30
2019-03-10T00:19:15.111Z,7.32
2019-03-10T00:21:45.526Z,7.24
2019-03-10T00:24:15.925Z,7.24
2019-03-10T00:26:46.373Z,7.22
2019-03-10T00:29:16.804Z,7.26
2019-03-10T00:31:47.256Z,7.12
2019-03-10T00:34:17.661Z,7.16
2019-03-10T00:36:48.150Z,7.07
2019-03-10T00:39:30.251Z,7.02
2019-03-10T00:42:26.291Z,7.04
2019-03-10T00:45:25.097Z,7.58
2019-03-10T00:47:58.449Z,7.49
2019-03-10T00:50:50.001Z,7.48
2019-03-10T00:53:20.490Z,7.38
2019-03-10T00:55:50.875Z,7.22
2019-03-10T00:58:21.321Z,6.94
2019-03-10T01:00:52.609Z,6.93
2019-03-10T01:03:23.143Z,6.87
2019-03-10T01:05:53.567Z,6.84
2019-03-10T01:08:24.144Z,6.86
2019-03-10T01:10:54.653Z,6.93
2019-03-10T01:13:25.518Z,6.92
2019-03-10T02:14:15.564Z,7.75
2019-03-10T02:16:46.039Z,7.58
2019-03-10T02:19:16.509Z,7.66
2019-03-10T02:21:46.913Z,7.79
2019-03-10T02:24:23.798Z,7.84
2019-03-10T02:26:49.534Z,7.90
2019-03-10T02:29:19.979Z,7.83
2019-03-10T02:31:50.411Z,7.91
2019-03-10T02:34:20.866Z,7.84
2019-03-10T02:36:51.492Z,7.89
2019-03-10T02:39:21.894Z,7.78
2019-03-10T02:41:52.351Z,7.68
2019-03-10T02:44:22.770Z,7.61
2019-03-10T02:46:53.242Z,7.52
2019-03-10T02:49:23.645Z,7.57
2019-03-10T02:51:54.092Z,7.66
2019-03-10T02:54:24.692Z,7.60
2019-03-10T02:56:55.124Z,7.66
2019-03-10T02:59:25.528Z,7.48
2019-03-10T03:02:01.588Z,7.54
2019-03-10T03:04:32.035Z,7.46
2019-03-10T03:07:02.469Z,7.27
2019-03-10T03:09:32.872Z,7.30
2019-03-10T03:12:03.326Z,7.18
2019-03-10T03:14:33.743Z,7.00
2019-03-10T03:17:04.328Z,6.82
2019-03-10T03:19:36.091Z,6.67
2019-03-10T03:22:06.571Z,6.67
2019-03-10T03:24:37.010Z,6.48
2019-03-10T03:27:07.488Z,6.51
2019-03-10T03:29:37.812Z,6.61
2019-03-10T03:32:08.253Z,6.59
2019-03-10T03:34:38.664Z,6.53
2019-03-10T03:37:09.421Z,6.50
2019-03-10T03:39:39.854Z,6.53
2019-03-10T03:42:10.359Z,6.44
2019-03-10T03:44:40.753Z,6.37
2019-03-10T03:47:11.169Z,6.32
2019-03-10T03:49:41.563Z,6.33
2019-03-10T03:52:12.029Z,6.34
2019-03-10T03:54:42.376Z,6.37
2019-03-10T03:57:12.780Z,6.18
2019-03-10T03:59:43.187Z,6.17
2019-03-10T04:02:15.228Z,6.11
2019-03-10T04:04:45.613Z,6.02
2019-03-10T04:07:16.104Z,5.89
2019-03-10T04:09:46.546Z,5.91
2019-03-10T04:12:17.051Z,6.01
2019-03-10T04:14:47.469Z,6.04
2019-03-10T04:17:18.016Z,6.11
2019-03-10T04:19:48.426Z,6.04
2019-03-10T04:22:18.905Z,6.08
2019-03-10T04:24:49.326Z,6.07
2019-03-10T04:27:19.722Z,6.20
2019-03-10T04:29:50.141Z,6.22
2019-03-10T04:32:20.681Z,6.09
2019-03-10T04:34:51.145Z,6.16
2019-03-10T04:37:21.569Z,6.13
2019-03-10T04:39:52.053Z,6.12
2019-03-10T04:42:22.470Z,6.10
2019-03-10T04:44:52.939Z,6.04
2019-03-10T04:47:23.350Z,5.98
2019-03-10T04:49:53.773Z,5.94
2019-03-10T04:52:24.299Z,5.98
2019-03-10T04:55:08.359Z,6.00
2019-03-10T04:57:40.350Z,6.02
2019-03-10T05:00:10.791Z,6.03
2019-03-10T05:02:41.228Z,6.02
2019-03-10T05:05:11.694Z,6.08
2019-03-10T05:07:42.122Z,6.09
2019-03-10T05:10:12.621Z,6.16
2019-03-10T05:12:43.008Z,6.33
2019-03-10T05:15:14.047Z,6.35
2019-03-10T05:17:44.785Z,6.26
2019-03-10T05:20:15.153Z,6.28
2019-03-10T05:22:51.674Z,6.20
2019-03-10T05:25:28.943Z,6.41
2019-03-10T05:28:04.184Z,6.31
2019-03-10T05:30:34.827Z,6.49
2019-03-10T05:33:05.980Z,6.58
2019-03-10T05:35:36.407Z,6.54
2019-03-10T05:38:06.833Z,6.63
2019-03-10T05:40:37.252Z,6.49
2019-03-10T05:43:07.730Z,6.66
2019-03-10T05:45:38.176Z,6.72
2019-03-10T05:48:08.577Z,6.75
2019-03-10T05:50:39.041Z,6.76
2019-03-10T05:53:09.408Z,6.81
2019-03-10T05:55:39.811Z,6.81
2019-03-10T05:58:10.157Z,6.89
2019-03-10T06:00:43.041Z,6.95
2019-03-10T06:03:12.593Z,7.13
2019-03-10T06:05:43.009Z,7.10
2019-03-10T06:08:13.445Z,7.24
2019-03-10T06:10:43.769Z,7.43
2019-03-10T06:13:14.223Z,7.42
2019-03-10T06:15:44.670Z,7.64
2019-03-10T06:20:55.508Z,7.79
2019-03-10T06:23:25.929Z,7.94
2019-03-10T06:25:56.414Z,8.24
2019-03-10T06:28:27.243Z,8.45
2019-03-10T06:30:57.704Z,8.63
2019-03-10T06:33:28.101Z,8.80
2019-03-10T06:35:58.551Z,8.84
2019-03-10T06:38:29.021Z,8.93
2019-03-10T06:40:59.483Z,9.00
2019-03-10T06:43:29.916Z,8.90
2019-03-10T06:46:00.434Z,8.93
2019-03-10T06:48:30.880Z,9.12
2019-03-10T06:51:01.352Z,9.23
2019-03-10T06:53:31.749Z,9.24
2019-03-10T06:56:03.739Z,9.34
2019-03-10T06:58:34.126Z,9.36
2019-03-10T07:01:04.588Z,9.49
2019-03-10T07:03:34.979Z,9.83
2019-03-10T07:06:05.417Z,9.83
2019-03-10T07:08:35.814Z,9.90
2019-03-10T07:11:06.272Z,10.18
2019-03-10T07:13:36.687Z,10.32
2019-03-10T07:16:07.131Z,10.35
2019-03-10T07:18:37.892Z,10.28
2019-03-10T07:21:08.293Z,10.56
2019-03-10T07:23:38.694Z,10.77
2019-03-10T07:26:09.097Z,10.56
2019-03-10T07:28:44.820Z,10.85
2019-03-10T07:31:31.094Z,10.82
2019-03-10T07:34:18.203Z,10.82
2019-03-10T07:37:05.259Z,10.78
2019-03-10T07:39:46.049Z,10.87
2019-03-10T07:42:21.110Z,10.96
2019-03-10T07:45:10.051Z,10.79
2019-03-10T07:47:54.167Z,10.61
2019-03-10T07:50:35.390Z,10.64
2019-03-10T07:53:23.666Z,10.64
2019-03-10T07:56:11.566Z,10.67
2019-03-10T07:58:43.677Z,10.68
2019-03-10T08:01:19.221Z,10.68
2019-03-10T08:03:54.152Z,10.85
2019-03-10T08:06:35.324Z,10.84
2019-03-10T08:09:15.818Z,10.80
2019-03-10T08:12:04.295Z,10.97
2019-03-10T08:14:48.291Z,11.23
2019-03-10T08:17:35.791Z,11.42
2019-03-10T08:20:08.553Z,11.42
2019-03-10T08:22:40.564Z,11.60
2019-03-10T08:25:15.578Z,11.51
2019-03-10T08:28:00.851Z,11.50
2019-03-10T08:30:30.267Z,11.57
2019-03-10T08:33:21.321Z,11.58
2019-03-10T08:35:59.358Z,11.53
2019-03-10T08:38:51.822Z,11.73
2019-03-10T08:41:23.782Z,12.00
2019-03-10T08:44:10.830Z,12.07
2019-03-10T08:46:57.876Z,12.32
2019-03-10T08:49:45.147Z,12.20
2019-03-10T08:52:18.611Z,11.84
2019-03-10T08:54:50.646Z,11.72
2019-03-10T08:57:25.334Z,11.75
2019-03-10T09:00:06.396Z,11.87
2019-03-10T09:02:41.208Z,12.12
2019-03-10T09:05:19.615Z,11.96
2019-03-10T09:07:51.675Z,11.98
2019-03-10T09:10:39.847Z,12.10
2019-03-10T09:13:14.539Z,12.12
2019-03-10T09:15:52.638Z,12.41
2019-03-10T09:18:27.617Z,12.26
2019-03-10T09:20:59.645Z,12.78
2019-03-10T09:23:37.458Z,12.96
2019-03-10T09:26:09.485Z,13.26
2019-03-10T09:28:57.814Z,12.89
2019-03-10T09:31:41.749Z,12.84
2019-03-10T09:34:14.761Z,13.26
2019-03-10T09:37:01.820Z,13.37
2019-03-10T09:39:39.470Z,13.43
2019-03-10T09:42:11.462Z,13.36
2019-03-10T09:44:52.579Z,13.66
2019-03-10T09:47:39.548Z,13.43
2019-03-10T09:50:31.314Z,13.52
2019-03-10T09:53:03.368Z,13.44
2019-03-10T09:55:51.470Z,13.66
2019-03-10T09:58:29.586Z,13.82
2019-03-10T10:01:07.558Z,14.09
2019-03-10T10:03:45.579Z,14.27
2019-03-10T10:06:17.550Z,14.18
2019-03-10T10:08:52.361Z,14.09
2019-03-10T10:11:40.741Z,14.06
2019-03-10T10:14:18.590Z,14.21
2019-03-10T10:16:50.556Z,14.33
2019-03-10T10:19:28.326Z,14.36
2019-03-10T10:22:03.271Z,14.61
2019-03-10T10:24:35.300Z,14.70
2019-03-10T10:27:13.252Z,15.53
2019-03-10T10:29:51.260Z,15.36
2019-03-10T10:32:23.238Z,15.43
2019-03-10T10:34:58.338Z,15.24
2019-03-10T10:37:46.704Z,15.08
2019-03-10T10:40:18.735Z,15.29
2019-03-10T10:42:50.704Z,15.50
2019-03-10T10:45:23.055Z,15.64
2019-03-10T10:48:11.441Z,15.63
2019-03-10T10:50:49.592Z,15.65
2019-03-10T10:53:37.741Z,16.41
2019-03-10T10:56:25.100Z,16.27
2019-03-10T10:58:57.070Z,17.22
2019-03-10T11:01:44.024Z,17.64
2019-03-10T11:04:16.016Z,18.01
2019-03-10T11:06:51.027Z,17.71
2019-03-10T11:09:23.027Z,17.41
2019-03-10T11:11:55.067Z,17.39
2019-03-10T11:14:43.327Z,17.12
2019-03-10T11:17:31.854Z,16.87
2019-03-10T11:20:09.905Z,17.05
2019-03-10T11:22:44.513Z,16.85
2019-03-10T11:25:19.471Z,17.32
2019-03-10T11:27:54.499Z,17.07
2019-03-10T11:30:26.460Z,16.16
2019-03-10T11:33:07.305Z,15.88
2019-03-10T11:35:57.847Z,16.84
2019-03-10T11:38:29.870Z,16.71
2019-03-10T11:41:18.014Z,15.42
2019-03-10T11:43:50.051Z,15.03
2019-03-10T11:46:22.023Z,14.25
2019-03-10T11:48:57.018Z,14.12
2019-03-10T11:51:34.731Z,14.16
2019-03-10T11:54:09.742Z,13.97
2019-03-10T11:56:44.696Z,14.22
2019-03-10T11:59:16.720Z,14.35
2019-03-10T12:01:48.687Z,14.35
2019-03-10T12:04:29.896Z,14.28
2019-03-10T12:07:13.812Z,15.17
2019-03-10T12:09:44.250Z,14.83
2019-03-10T12:12:14.665Z,14.40
2019-03-10T12:14:45.113Z,14.71
2019-03-10T12:17:15.519Z,14.37
2019-03-10T12:19:45.901Z,14.29
2019-03-10T12:22:16.285Z,14.21
2019-03-10T12:24:46.735Z,14.14
2019-03-10T12:27:17.062Z,14.05
2019-03-10T12:29:47.528Z,14.24
2019-03-10T12:32:17.893Z,14.37
2019-03-10T12:34:48.282Z,14.18
2019-03-10T12:37:18.881Z,14.04
2019-03-10T12:39:49.264Z,13.94
2019-03-10T12:42:19.696Z,13.80
2019-03-10T12:44:50.017Z,13.68
2019-03-10T12:47:20.457Z,13.65
2019-03-10T12:49:50.844Z,13.56
2019-03-10T12:52:21.277Z,13.44
2019-03-10T12:54:51.652Z,13.37
2019-03-10T12:57:22.130Z,13.40
2019-03-10T12:59:52.518Z,13.44
2019-03-10T13:02:22.989Z,13.35
2019-03-10T13:04:53.402Z,13.31
2019-03-10T13:07:23.842Z,13.31
2019-03-10T13:09:54.238Z,13.16
2019-03-10T13:12:24.696Z,13.19
2019-03-10T13:14:59.310Z,13.16
2019-03-10T13:17:27.262Z,13.10
2019-03-10T13:19:59.213Z,13.01
2019-03-10T13:22:29.666Z,12.99
2019-03-10T13:25:00.055Z,12.53
2019-03-10T13:27:30.542Z,11.96
2019-03-10T13:30:01.900Z,11.73
2019-03-10T13:32:32.718Z,10.78
2019-03-10T13:35:03.143Z,10.12
2019-03-10T13:37:33.675Z,9.59
2019-03-10T13:40:05.901Z,9.31
2019-03-10T13:42:36.382Z,9.10
2019-03-10T13:45:09.706Z,9.00
2019-03-10T13:47:40.162Z,8.92
2019-03-10T13:50:12.876Z,8.76
2019-03-10T13:52:43.329Z,8.66
2019-03-10T13:55:13.779Z,8.48
2019-03-10T13:57:44.254Z,8.34
2019-03-10T14:00:25.039Z,8.25
2019-03-10T14:02:55.570Z,8.12
2019-03-10T14:05:25.954Z,7.97
2019-03-10T14:07:56.400Z,7.89
2019-03-10T14:10:26.872Z,7.77
2019-03-10T14:12:57.367Z,7.83
2019-03-10T14:15:27.768Z,7.74
2019-03-10T14:17:58.219Z,7.72
2019-03-10T14:20:28.619Z,7.65
2019-03-10T14:22:59.086Z,7.61
2019-03-10T14:25:29.476Z,7.58
2019-03-10T14:27:59.957Z,7.56
2019-03-10T14:30:30.370Z,7.57
2019-03-10T14:33:00.863Z,7.54
2019-03-10T14:35:31.267Z,7.53
2019-03-10T14:38:01.788Z,7.40
2019-03-10T14:40:32.067Z,7.21
2019-03-10T14:43:02.384Z,7.02
2019-03-10T14:45:32.684Z,5.96
2019-03-10T14:48:03.049Z,5.58
2019-03-10T14:50:33.333Z,5.50
2019-03-10T14:53:04.744Z,5.42
2019-03-10T14:55:35.292Z,5.32
2019-03-10T14:58:05.566Z,5.07
2019-03-10T15:00:35.876Z,4.88
2019-03-10T15:03:06.322Z,4.79
2019-03-10T15:05:36.753Z,4.76
2019-03-10T15:08:07.255Z,4.75
2019-03-10T15:10:37.734Z,4.63
2019-03-10T15:13:08.209Z,4.39
2019-03-10T15:15:38.725Z,4.39
2019-03-10T15:18:09.164Z,4.42
2019-03-10T15:20:39.609Z,4.34
2019-03-10T15:23:10.073Z,4.31
2019-03-10T15:25:40.464Z,4.42
2019-03-10T15:28:10.907Z,4.28
2019-03-10T15:30:41.333Z,4.33
2019-03-10T15:33:11.895Z,4.38
2019-03-10T15:35:42.348Z,4.46
2019-03-10T15:38:12.920Z,4.54
2019-03-10T15:40:43.358Z,4.50
2019-03-10T15:43:13.817Z,4.46
2019-03-10T15:45:44.686Z,4.44
2019-03-10T15:48:15.188Z,4.46
2019-03-10T15:50:45.580Z,4.45
2019-03-10T15:53:16.032Z,4.62
2019-03-10T15:55:46.458Z,4.57
2019-03-10T15:58:16.922Z,4.61
2019-03-10T16:00:47.350Z,4.68
2019-03-10T16:03:17.851Z,4.74
2019-03-10T16:05:48.284Z,4.70
2019-03-10T16:08:18.813Z,4.75
2019-03-10T16:10:49.204Z,4.91
2019-03-10T16:13:19.666Z,4.85
2019-03-10T16:15:50.057Z,4.75
2019-03-10T16:18:20.496Z,4.81
2019-03-10T16:20:50.893Z,4.85
2019-03-10T16:23:22.779Z,4.97
2019-03-10T16:25:53.196Z,5.02
2019-03-10T16:28:23.624Z,5.02
2019-03-10T16:30:54.003Z,5.11
2019-03-10T16:33:25.499Z,5.13
2019-03-10T16:35:56.059Z,5.13
2019-03-10T16:38:26.582Z,5.09
2019-03-10T16:40:56.914Z,5.05
2019-03-10T16:43:27.355Z,5.08
2019-03-10T16:45:57.757Z,5.07
2019-03-10T16:48:28.267Z,5.11
2019-03-10T16:50:58.674Z,5.05
2019-03-10T16:53:29.062Z,5.11
2019-03-10T16:56:03.110Z,5.08
2019-03-10T16:58:31.648Z,5.12
2019-03-10T17:01:02.070Z,5.15
2019-03-10T17:03:32.528Z,5.22
2019-03-10T17:06:02.838Z,5.26
2019-03-10T17:08:33.269Z,5.31
2019-03-10T17:11:03.662Z,5.31
2019-03-10T17:13:34.112Z,5.38
2019-03-10T17:16:04.440Z,5.40
2019-03-10T17:18:34.892Z,5.38
2019-03-10T17:21:05.317Z,5.41
2019-03-10T17:23:35.796Z,5.51
2019-03-10T17:26:06.210Z,5.50
2019-03-10T17:28:36.646Z,5.56
2019-03-10T17:31:06.957Z,5.55
2019-03-10T17:33:37.323Z,5.54
2019-03-10T17:36:07.727Z,5.56
2019-03-10T17:38:38.176Z,5.53
2019-03-10T17:41:08.496Z,5.48
2019-03-10T17:43:38.870Z,5.44
2019-03-10T17:46:09.286Z,5.43
2019-03-10T17:48:39.655Z,5.42
2019-03-10T17:51:09.958Z,5.42
2019-03-10T17:53:41.956Z,5.32
2019-03-10T17:56:12.432Z,5.31
2019-03-10T17:58:42.849Z,5.30
2019-03-10T18:01:13.187Z,5.28
2019-03-10T18:03:43.539Z,5.30
2019-03-10T18:06:13.863Z,5.27
2019-03-10T18:08:44.218Z,5.21
2019-03-10T18:11:14.526Z,5.28
2019-03-10T18:13:44.871Z,5.28
2019-03-10T18:16:15.276Z,5.22
2019-03-10T18:18:45.741Z,5.20
2019-03-10T18:21:16.149Z,5.20
2019-03-10T18:23:46.614Z,5.20
2019-03-10T18:26:17.001Z,5.20
2019-03-10T18:28:47.462Z,5.23
2019-03-10T18:31:17.866Z,5.24
2019-03-10T18:33:48.332Z,5.26
2019-03-10T18:36:18.728Z,5.25
2019-03-10T18:38:49.167Z,5.27
2019-03-10T18:41:19.453Z,5.24
2019-03-10T18:43:49.795Z,5.34
2019-03-10T18:46:20.078Z,5.31
2019-03-10T18:48:50.434Z,5.40
2019-03-10T18:51:20.764Z,5.39
2019-03-10T18:53:51.108Z,5.32
2019-03-10T18:56:21.426Z,5.35
2019-03-10T18:58:51.784Z,5.48
2019-03-10T19:01:22.047Z,5.51
2019-03-10T19:03:52.504Z,5.52
2019-03-10T19:06:22.871Z,5.50
2019-03-10T19:08:53.273Z,5.53
2019-03-10T19:11:23.689Z,5.57
2019-03-10T19:13:54.160Z,5.56
2019-03-10T19:16:24.548Z,5.60
2019-03-10T19:18:54.992Z,5.57
2019-03-10T19:21:25.667Z,5.52
2019-03-10T19:23:56.120Z,5.55
2019-03-10T19:26:26.413Z,5.60
2019-03-10T19:28:56.849Z,5.58
2019-03-10T19:31:27.151Z,5.54
2019-03-10T19:33:57.505Z,5.56
2019-03-10T19:36:27.828Z,5.53
2019-03-10T19:38:58.444Z,5.46
2019-03-10T19:41:28.818Z,5.52
2019-03-10T19:43:59.318Z,5.40
2019-03-10T19:46:29.791Z,5.43
2019-03-10T19:49:00.548Z,5.45
2019-03-10T19:51:30.887Z,5.42
2019-03-10T19:54:01.259Z,5.37
2019-03-10T19:56:31.559Z,5.33
2019-03-10T19:59:01.904Z,5.33
2019-03-10T20:01:32.194Z,5.21
2019-03-10T20:04:02.567Z,5.15
2019-03-10T20:06:32.867Z,5.14
2019-03-10T20:09:04.846Z,5.13
2019-03-10T20:11:35.145Z,5.09
2019-03-10T20:14:05.493Z,5.04
2019-03-10T20:16:35.795Z,4.94
2019-03-10T20:19:06.139Z,4.96
2019-03-10T20:21:36.574Z,5.06
2019-03-10T20:24:07.063Z,5.03
2019-03-10T20:26:37.500Z,4.98
2019-03-10T20:29:07.949Z,5.00
2019-03-10T20:31:38.316Z,4.95
2019-03-10T20:34:08.689Z,4.96
2019-03-10T20:36:39.634Z,4.86
2019-03-10T20:39:10.296Z,4.84
2019-03-10T20:41:40.701Z,4.84
2019-03-10T20:44:11.181Z,4.76
2019-03-10T20:46:41.607Z,4.72
2019-03-10T20:49:12.082Z,4.70
2019-03-10T20:51:42.494Z,4.71
2019-03-10T20:54:12.846Z,4.53
2019-03-10T20:56:43.158Z,4.59
2019-03-10T20:59:13.519Z,4.55
2019-03-10T21:01:43.828Z,4.46
2019-03-10T21:04:14.231Z,4.42
2019-03-10T21:06:44.646Z,4.35
2019-03-10T21:09:15.082Z,4.28
2019-03-10T21:11:45.453Z,4.25
2019-03-10T21:14:15.841Z,4.15
2019-03-10T21:16:46.238Z,4.14
2019-03-10T21:19:16.733Z,4.06
2019-03-10T21:21:47.174Z,4.06
2019-03-10T21:24:17.583Z,3.94
2019-03-10T21:26:47.906Z,3.95
2019-03-10T21:29:18.262Z,3.84
2019-03-10T21:31:48.556Z,3.71
2019-03-10T21:34:18.939Z,3.58
2019-03-10T21:36:49.232Z,3.52
2019-03-10T21:39:20.024Z,3.39
2019-03-10T21:41:50.338Z,3.39
2019-03-10T21:44:26.509Z,3.38
2019-03-10T21:46:52.710Z,3.34
2019-03-10T21:49:23.075Z,3.32
2019-03-10T21:51:53.399Z,3.30
2019-03-10T21:54:23.771Z,3.26
2019-03-10T21:56:54.057Z,3.25
2019-03-10T21:59:24.414Z,3.29
2019-03-10T22:01:54.732Z,3.33
2019-03-10T22:04:25.089Z,3.30
2019-03-10T22:06:55.393Z,3.43
2019-03-10T22:09:25.771Z,3.43
2019-03-10T22:11:56.088Z,3.37
2019-03-10T22:14:28.631Z,3.35
2019-03-10T22:16:58.460Z,3.25
2019-03-10T22:19:28.841Z,3.18
2019-03-10T22:21:59.155Z,3.10
2019-03-10T22:24:29.557Z,3.03
2019-03-10T22:26:59.894Z,2.98
2019-03-10T22:29:30.235Z,2.99
2019-03-10T22:32:00.580Z,3.08
2019-03-10T22:34:30.933Z,2.96
2019-03-10T22:37:01.226Z,2.89
2019-03-10T22:39:31.761Z,2.88
2019-03-10T22:42:02.073Z,2.83
2019-03-10T22:44:32.433Z,2.80
2019-03-10T22:47:02.754Z,2.83
2019-03-10T22:49:33.106Z,2.67
2019-03-10T22:52:03.413Z,2.66
2019-03-10T22:54:33.781Z,2.64
2019-03-10T22:57:04.082Z,2.57
2019-03-10T22:59:34.455Z,2.54
2019-03-10T23:02:04.771Z,2.48
2019-03-10T23:04:35.126Z,2.53
2019-03-10T23:07:05.514Z,2.58
2019-03-10T23:09:36.012Z,2.65
2019-03-10T23:12:06.413Z,2.75
2019-03-10T23:14:36.879Z,2.77
2019-03-10T23:17:07.208Z,2.75
2019-03-10T23:19:37.679Z,2.77
2019-03-10T23:22:08.082Z,2.81
2019-03-10T23:24:38.547Z,2.85
2019-03-10T23:27:08.961Z,2.79
2019-03-10T23:29:39.401Z,2.72
2019-03-10T23:32:09.848Z,2.77
2019-03-10T23:34:40.295Z,2.74
2019-03-10T23:37:10.716Z,2.73
2019-03-10T23:39:41.274Z,2.76
2019-03-10T23:42:11.724Z,2.83
2019-03-10T23:47:40.691Z,2.68
2019-03-10T23:50:15.760Z,2.70
2019-03-10T23:52:46.452Z,2.67
2019-03-10T23:55:16.888Z,2.60
2019-03-10T23:57:47.844Z,2.58
